Terminal Aerodrome Forecast
Issued by NWS Wilmington, OH

Current Version | Previous Version | Text Only | Print | Product List | Glossary Off
Versions: 1 2 3 4 5 6 7 8 9 10 11 12 13 14 15 16 17 18 19 20 21 22 23 24 25 26

000
FTUS41 KILN 270700 AAB
TAFCVG
TAF AMD
KCVG 270759Z 2708/2812 32005KT P6SM SCT035
      TEMPO 2708/2709 -SN BKN025
     FM280000 04004KT P6SM FEW035 BKN150=

USA.gov is the U.S. government's official web portal to all federal, state and local government web resources and services.